In Rescue
 
Open Full Screen Window  High Contrast Mode
Wind Gusting 00 knots
13
May 20, 2019 2:25 PM EDT
Weather Information
Wind Direction
  270 °
Wind Speed
  13 kt (15 mph)
Wind Gust
  00 kt (0 mph)
Altimeter
29.96 in
Visibility
10 SM
Temperature
12° C
54° F
Dewpoint
06° C
43° F
Humidity
67%
Sky Condition
Overcast @ 2,700 ft
MVFR

METAR KHYX 201825Z AUTO 27013KT 10SM OVC027 12/06 A2996 RMK AO2

FAA Disclaimer: The data displayed is for advisory purposes only and is not to be used for flight planning or operations.